createdAt,value
2022-08-28T00:00:11.027Z,14.70
2022-08-28T00:01:11.009Z,19.20
2022-08-28T00:02:10.994Z,16.00
2022-08-28T00:03:11.046Z,13.10
2022-08-28T00:04:10.960Z,10.70
2022-08-28T00:05:10.940Z,11.50
2022-08-28T00:06:10.924Z,15.40
2022-08-28T00:07:10.902Z,14.00
2022-08-28T00:08:11.080Z,14.80
2022-08-28T00:09:11.345Z,16.90
2022-08-28T00:10:10.856Z,18.60
2022-08-28T00:11:10.834Z,14.70
2022-08-28T00:12:10.820Z,14.50
2022-08-28T00:13:10.798Z,14.80
2022-08-28T00:14:10.784Z,12.60
2022-08-28T00:15:11.897Z,16.00
2022-08-28T00:16:10.807Z,11.80
2022-08-28T00:17:10.730Z,16.80
2022-08-28T00:18:10.746Z,13.80
2022-08-28T00:19:10.695Z,11.80
2022-08-28T00:20:10.677Z,13.10
2022-08-28T00:21:10.659Z,13.90
2022-08-28T00:22:10.641Z,13.40
2022-08-28T00:23:10.626Z,13.70
2022-08-28T00:24:10.605Z,12.60
2022-08-28T00:25:10.590Z,8.70
2022-08-28T00:26:10.569Z,11.00
2022-08-28T00:27:10.554Z,10.50
2022-08-28T00:28:10.797Z,12.00
2022-08-28T00:29:10.518Z,17.10
2022-08-28T00:30:10.500Z,12.90
2022-08-28T00:31:10.562Z,11.40
2022-08-28T00:32:10.462Z,10.90
2022-08-28T00:33:10.728Z,8.00
2022-08-28T00:34:10.429Z,16.00
2022-08-28T00:35:10.412Z,11.60
2022-08-28T00:36:10.391Z,12.00
2022-08-28T00:37:10.378Z,14.20
2022-08-28T00:38:10.370Z,10.10
2022-08-28T00:39:10.341Z,14.50
2022-08-28T00:40:10.387Z,12.00
2022-08-28T00:41:10.306Z,12.90
2022-08-28T00:42:10.291Z,11.70
2022-08-28T00:43:10.270Z,12.90
2022-08-28T00:44:10.251Z,14.70
2022-08-28T00:45:10.234Z,10.40
2022-08-28T00:46:10.274Z,14.60
2022-08-28T00:47:10.198Z,16.30
2022-08-28T00:48:10.181Z,14.40
2022-08-28T00:49:10.162Z,10.90
2022-08-28T00:50:10.146Z,12.20
2022-08-28T00:51:10.131Z,12.90
2022-08-28T00:52:10.807Z,16.80
2022-08-28T00:53:10.094Z,13.40
2022-08-28T00:54:10.074Z,14.90
2022-08-28T00:55:10.058Z,13.90
2022-08-28T00:56:12.857Z,13.60
2022-08-28T00:57:10.023Z,10.90
2022-08-28T00:58:10.004Z,14.90
2022-08-28T00:59:09.987Z,16.10
2022-08-28T01:00:09.965Z,11.20
2022-08-28T01:01:09.951Z,12.80
2022-08-28T01:02:09.929Z,13.10
2022-08-28T01:03:10.014Z,17.30
2022-08-28T01:04:09.893Z,13.70
2022-08-28T01:05:09.880Z,16.20
2022-08-28T01:06:09.859Z,13.60
2022-08-28T01:07:09.842Z,13.00
2022-08-28T01:08:09.910Z,13.60
2022-08-28T01:09:09.807Z,13.70
2022-08-28T01:10:09.790Z,12.30
2022-08-28T01:11:09.771Z,12.30
2022-08-28T01:12:09.754Z,13.60
2022-08-28T01:13:09.735Z,11.70
2022-08-28T01:14:09.717Z,16.50
2022-08-28T01:15:09.700Z,16.80
2022-08-28T01:16:09.802Z,12.90
2022-08-28T01:17:09.664Z,15.30
2022-08-28T01:18:09.783Z,14.20
2022-08-28T01:19:09.628Z,13.60
2022-08-28T01:20:09.606Z,14.30
2022-08-28T01:21:09.592Z,12.30
2022-08-28T01:22:09.571Z,12.70
2022-08-28T01:27:18.503Z,14.30
2022-08-28T01:28:18.484Z,16.20
2022-08-28T01:29:18.466Z,13.50
2022-08-28T01:30:18.450Z,12.20
2022-08-28T01:31:18.618Z,12.70
2022-08-28T01:32:18.415Z,13.00
2022-08-28T01:33:18.394Z,18.30
2022-08-28T01:34:18.375Z,15.50
2022-08-28T01:35:18.356Z,11.40
2022-08-28T01:36:18.340Z,13.30
2022-08-28T01:37:18.320Z,13.00
2022-08-28T01:38:20.020Z,15.00
2022-08-28T01:39:18.285Z,11.90
2022-08-28T01:40:18.327Z,12.70
2022-08-28T01:41:18.249Z,11.20
2022-08-28T01:42:18.232Z,12.70
2022-08-28T01:43:18.212Z,13.60
2022-08-28T01:44:18.382Z,13.80
2022-08-28T01:45:18.177Z,10.70
2022-08-28T01:46:18.238Z,15.90
2022-08-28T01:47:18.142Z,13.30
2022-08-28T01:48:18.122Z,11.20
2022-08-28T01:49:18.104Z,18.00
2022-08-28T01:50:18.085Z,12.50
2022-08-28T01:51:21.546Z,13.50
2022-08-28T01:52:18.052Z,12.90
2022-08-28T01:53:18.032Z,16.50
2022-08-28T01:54:18.011Z,15.20
2022-08-28T01:55:20.693Z,15.70
2022-08-28T01:56:17.981Z,12.70
2022-08-28T01:57:17.957Z,13.00
2022-08-28T01:58:17.941Z,14.80
2022-08-28T01:59:17.920Z,11.30
2022-08-28T02:00:17.902Z,15.90
2022-08-28T02:01:17.985Z,13.10
2022-08-28T02:02:17.865Z,17.30
2022-08-28T02:03:17.844Z,11.40
2022-08-28T02:04:17.853Z,14.00
2022-08-28T02:05:17.809Z,10.60
2022-08-28T02:06:18.127Z,17.20
2022-08-28T02:07:17.774Z,13.50
2022-08-28T02:08:17.758Z,14.30
2022-08-28T02:09:17.738Z,14.90
2022-08-28T02:10:17.719Z,13.70
2022-08-28T02:11:17.698Z,10.80
2022-08-28T02:12:17.682Z,17.40
2022-08-28T02:13:17.661Z,9.20
2022-08-28T02:14:17.646Z,15.10
2022-08-28T02:15:17.626Z,12.00
2022-08-28T02:16:17.683Z,12.30
2022-08-28T02:17:17.594Z,13.80
2022-08-28T02:18:17.572Z,12.30
2022-08-28T02:19:17.551Z,12.60
2022-08-28T02:20:17.535Z,13.30
2022-08-28T02:21:17.519Z,13.80
2022-08-28T02:22:17.505Z,16.10
2022-08-28T02:23:17.479Z,16.70
2022-08-28T02:24:17.464Z,13.70
2022-08-28T02:25:17.444Z,13.80
2022-08-28T02:26:17.424Z,14.80
2022-08-28T02:27:17.406Z,17.60
2022-08-28T02:28:17.386Z,15.80
2022-08-28T02:29:17.371Z,12.40
2022-08-28T02:30:17.368Z,14.70
2022-08-28T02:31:17.493Z,13.90
2022-08-28T02:32:17.315Z,15.40
2022-08-28T02:33:17.295Z,16.50
2022-08-28T02:34:17.284Z,15.40
2022-08-28T02:35:17.259Z,13.00
2022-08-28T02:36:17.245Z,13.10
2022-08-28T02:37:17.224Z,14.40
2022-08-28T02:38:17.209Z,15.80
2022-08-28T02:39:17.185Z,13.10
2022-08-28T02:40:17.255Z,15.80
2022-08-28T02:41:17.149Z,11.30
2022-08-28T02:42:17.132Z,12.40
2022-08-28T02:43:17.111Z,19.70
2022-08-28T02:44:17.096Z,16.30
2022-08-28T02:45:17.074Z,13.80
2022-08-28T02:46:17.128Z,14.00
2022-08-28T02:47:17.040Z,14.10
2022-08-28T02:48:17.627Z,11.90
2022-08-28T02:49:17.003Z,11.50
2022-08-28T02:50:16.985Z,15.40
2022-08-28T02:51:16.969Z,15.70
2022-08-28T02:52:16.950Z,11.20
2022-08-28T02:53:16.927Z,13.90
2022-08-28T02:54:16.908Z,11.90
2022-08-28T02:55:16.891Z,15.40
2022-08-28T02:56:16.878Z,12.20
2022-08-28T02:57:16.859Z,11.10
2022-08-28T02:58:16.836Z,11.80
2022-08-28T02:59:16.817Z,13.60
2022-08-28T03:00:16.799Z,13.30
2022-08-28T03:01:16.839Z,12.30
2022-08-28T03:02:16.913Z,12.00
2022-08-28T03:03:16.742Z,15.80
2022-08-28T03:04:16.727Z,12.60
2022-08-28T03:05:16.705Z,13.60
2022-08-28T03:06:16.688Z,14.60
2022-08-28T03:07:16.668Z,15.70
2022-08-28T03:08:16.653Z,9.80
2022-08-28T03:09:16.632Z,13.90
2022-08-28T03:10:16.615Z,12.80
2022-08-28T03:11:16.596Z,13.80
2022-08-28T03:12:16.579Z,14.30
2022-08-28T03:13:26.466Z,15.90
2022-08-28T03:14:16.541Z,19.70
2022-08-28T03:15:16.521Z,13.00
2022-08-28T03:16:16.551Z,12.20
2022-08-28T03:17:16.484Z,16.10
2022-08-28T03:18:16.727Z,11.70
2022-08-28T03:19:16.451Z,15.50
2022-08-28T03:20:16.430Z,17.60
2022-08-28T03:21:16.409Z,15.00
2022-08-28T03:22:16.392Z,13.60
2022-08-28T03:23:16.372Z,11.20
2022-08-28T03:24:16.356Z,11.10
2022-08-28T03:25:16.341Z,11.50
2022-08-28T03:26:16.318Z,20.30
2022-08-28T03:27:16.304Z,14.60
2022-08-28T03:28:16.282Z,11.10
2022-08-28T03:29:16.268Z,14.30
2022-08-28T03:30:16.247Z,12.80
2022-08-28T03:31:16.295Z,16.40
2022-08-28T03:32:16.210Z,15.80
2022-08-28T03:33:16.188Z,11.70
2022-08-28T03:34:16.171Z,14.10
2022-08-28T03:35:16.155Z,15.40
2022-08-28T03:36:16.133Z,15.20
2022-08-28T03:37:16.115Z,15.90
2022-08-28T03:38:16.099Z,14.30
2022-08-28T03:39:16.077Z,16.00
2022-08-28T03:40:16.110Z,15.00
2022-08-28T03:41:16.039Z,15.60
2022-08-28T03:42:16.024Z,11.10
2022-08-28T03:43:16.003Z,14.00
2022-08-28T03:44:15.986Z,18.30
2022-08-28T03:45:15.967Z,11.30
2022-08-28T03:46:16.142Z,14.60
2022-08-28T03:47:15.931Z,13.80
2022-08-28T03:48:15.913Z,11.30
2022-08-28T03:49:15.893Z,9.40
2022-08-28T03:50:15.877Z,16.80
2022-08-28T03:51:15.856Z,10.90
2022-08-28T03:52:15.838Z,12.60
2022-08-28T03:53:15.824Z,14.60
2022-08-28T03:54:15.799Z,14.60
2022-08-28T03:55:15.784Z,9.40
2022-08-28T03:56:15.764Z,13.20
2022-08-28T03:57:15.744Z,13.90
2022-08-28T03:58:18.754Z,13.20
2022-08-28T03:59:15.705Z,8.70
2022-08-28T04:00:15.690Z,15.20
2022-08-28T04:01:15.770Z,11.90
2022-08-28T04:02:15.654Z,17.50
2022-08-28T04:03:15.676Z,12.70
2022-08-28T04:04:15.613Z,12.60
2022-08-28T04:05:15.596Z,10.20
2022-08-28T04:06:15.575Z,11.10
2022-08-28T04:07:15.559Z,13.00
2022-08-28T04:08:15.541Z,10.70
2022-08-28T04:09:15.521Z,12.20
2022-08-28T04:10:15.502Z,13.60
2022-08-28T04:11:15.482Z,12.30
2022-08-28T04:12:15.465Z,14.50
2022-08-28T04:13:15.448Z,18.00
2022-08-28T04:14:15.430Z,12.80
2022-08-28T04:15:15.410Z,13.20
2022-08-28T04:16:15.436Z,10.90
2022-08-28T04:17:15.375Z,15.60
2022-08-28T04:18:15.360Z,12.20
2022-08-28T04:19:15.333Z,11.40
2022-08-28T04:20:15.316Z,14.50
2022-08-28T04:21:15.295Z,9.60
2022-08-28T04:22:15.280Z,13.90
2022-08-28T04:23:15.260Z,12.80
2022-08-28T04:24:15.241Z,13.80
2022-08-28T04:25:15.220Z,11.10
2022-08-28T04:26:15.205Z,12.80
2022-08-28T04:27:15.186Z,12.70
2022-08-28T04:28:15.168Z,15.20
2022-08-28T04:29:15.149Z,17.30
2022-08-28T04:30:15.129Z,11.20
2022-08-28T04:31:15.175Z,10.90
2022-08-28T04:32:15.163Z,16.90
2022-08-28T04:33:15.072Z,15.90
2022-08-28T04:34:15.053Z,16.80
2022-08-28T04:35:15.034Z,14.10
2022-08-28T04:36:15.017Z,11.00
2022-08-28T04:37:14.995Z,14.00
2022-08-28T04:38:15.179Z,14.60
2022-08-28T04:39:14.958Z,15.70
2022-08-28T04:40:15.023Z,17.20
2022-08-28T04:41:14.922Z,13.20
2022-08-28T04:42:14.905Z,14.20
2022-08-28T04:43:14.883Z,11.20
2022-08-28T04:44:14.864Z,16.90
2022-08-28T04:45:14.844Z,14.30
2022-08-28T04:46:14.917Z,15.70
2022-08-28T04:47:14.807Z,17.10
2022-08-28T04:48:14.899Z,17.60
2022-08-28T04:49:14.770Z,16.10
2022-08-28T04:50:14.753Z,16.60
2022-08-28T04:51:14.732Z,15.00
2022-08-28T04:52:14.715Z,16.90
2022-08-28T04:53:14.698Z,12.30
2022-08-28T04:54:14.675Z,12.80
2022-08-28T04:55:14.669Z,14.80
2022-08-28T04:56:14.639Z,14.80
2022-08-28T04:57:14.619Z,16.20
2022-08-28T04:58:14.602Z,15.20
2022-08-28T04:59:14.578Z,16.40
2022-08-28T05:00:14.563Z,15.00
2022-08-28T05:01:14.590Z,16.30
2022-08-28T05:02:14.584Z,19.90
2022-08-28T05:03:14.504Z,16.20
2022-08-28T05:04:14.491Z,16.20
2022-08-28T05:05:14.469Z,16.70
2022-08-28T05:06:14.450Z,16.40
2022-08-28T05:07:14.431Z,18.00
2022-08-28T05:08:14.628Z,17.00
2022-08-28T05:09:14.390Z,12.90
2022-08-28T05:10:14.372Z,20.60
2022-08-28T05:11:14.353Z,17.20
2022-08-28T05:12:14.334Z,16.70
2022-08-28T05:13:14.316Z,16.60
2022-08-28T05:14:16.317Z,15.20
2022-08-28T05:15:14.279Z,16.60
2022-08-28T05:16:14.429Z,15.80
2022-08-28T05:17:14.249Z,14.30
2022-08-28T05:18:14.433Z,20.60
2022-08-28T05:19:14.202Z,16.20
2022-08-28T05:20:14.183Z,17.70
2022-08-28T05:21:14.591Z,15.80
2022-08-28T05:22:14.145Z,16.00
2022-08-28T05:23:14.125Z,14.10
2022-08-28T05:24:14.107Z,14.70
2022-08-28T05:25:14.087Z,17.00
2022-08-28T05:26:14.069Z,15.90
2022-08-28T05:27:14.050Z,15.30
2022-08-28T05:28:14.171Z,15.10
2022-08-28T05:29:14.011Z,13.30
2022-08-28T05:30:13.992Z,14.90
2022-08-28T05:31:14.032Z,19.90
2022-08-28T05:32:13.957Z,14.10
2022-08-28T05:33:13.936Z,15.10
2022-08-28T05:34:13.919Z,15.90
2022-08-28T05:35:13.899Z,20.70
2022-08-28T05:36:13.880Z,16.00
2022-08-28T05:37:17.734Z,16.40
2022-08-28T05:38:14.104Z,17.40
2022-08-28T05:39:13.821Z,15.70
2022-08-28T05:40:13.860Z,14.50
2022-08-28T05:41:13.785Z,13.20
2022-08-28T05:42:13.767Z,16.20
2022-08-28T05:43:13.749Z,19.70
2022-08-28T05:44:13.730Z,15.10
2022-08-28T05:45:13.710Z,13.90
2022-08-28T05:46:13.701Z,16.70
2022-08-28T05:47:13.672Z,16.90
2022-08-28T05:48:13.814Z,19.60
2022-08-28T05:49:13.632Z,13.40
2022-08-28T05:50:13.613Z,14.30
2022-08-28T05:51:13.595Z,14.00
2022-08-28T05:52:13.576Z,13.30
2022-08-28T05:53:13.562Z,13.90
2022-08-28T05:54:13.536Z,11.20
2022-08-28T05:55:13.521Z,15.10
2022-08-28T05:56:13.499Z,15.30
2022-08-28T05:57:13.482Z,15.20
2022-08-28T05:58:13.667Z,16.50
2022-08-28T05:59:13.446Z,17.00
2022-08-28T06:00:13.424Z,15.10
2022-08-28T06:01:13.405Z,13.90
2022-08-28T06:02:13.413Z,12.40
2022-08-28T06:03:13.368Z,13.90
2022-08-28T06:04:13.517Z,14.40
2022-08-28T06:05:13.390Z,15.50
2022-08-28T06:06:13.345Z,14.50
2022-08-28T06:07:13.295Z,16.30
2022-08-28T06:08:13.536Z,15.80
2022-08-28T06:09:13.255Z,16.90
2022-08-28T06:10:13.235Z,12.40
2022-08-28T06:11:13.219Z,11.50
2022-08-28T06:12:13.197Z,13.90
2022-08-28T06:13:13.180Z,11.20
2022-08-28T06:14:13.158Z,11.20
2022-08-28T06:15:13.142Z,15.20
2022-08-28T06:16:13.142Z,15.00
2022-08-28T06:17:13.103Z,12.90
2022-08-28T06:18:13.221Z,17.10
2022-08-28T06:19:13.068Z,14.10
2022-08-28T06:20:13.046Z,14.10
2022-08-28T06:21:13.029Z,14.60
2022-08-28T06:22:13.007Z,16.10
2022-08-28T06:23:13.060Z,15.70
2022-08-28T06:24:12.971Z,16.40
2022-08-28T06:25:12.957Z,16.20
2022-08-28T06:26:12.933Z,12.40
2022-08-28T06:27:12.915Z,13.00
2022-08-28T06:28:13.047Z,13.00
2022-08-28T06:29:12.878Z,12.40
2022-08-28T06:30:12.860Z,16.10
2022-08-28T06:31:23.211Z,17.50
2022-08-28T06:32:12.851Z,14.90
2022-08-28T06:33:12.806Z,15.60
2022-08-28T06:34:12.782Z,15.10
2022-08-28T06:35:12.766Z,14.20
2022-08-28T06:36:12.748Z,16.00
2022-08-28T06:37:12.729Z,15.60
2022-08-28T06:38:12.885Z,14.60
2022-08-28T06:39:12.691Z,12.40
2022-08-28T06:40:12.687Z,15.70
2022-08-28T06:41:12.654Z,13.90
2022-08-28T06:42:12.635Z,15.90
2022-08-28T06:43:12.620Z,13.00
2022-08-28T06:44:12.595Z,13.80
2022-08-28T06:45:12.585Z,17.10
2022-08-28T06:46:12.609Z,11.00
2022-08-28T06:47:12.546Z,13.70
2022-08-28T06:48:12.773Z,14.90
2022-08-28T06:49:12.504Z,13.90
2022-08-28T06:50:12.485Z,16.40
2022-08-28T06:51:12.469Z,10.90
2022-08-28T06:52:12.503Z,15.50
2022-08-28T06:53:12.434Z,13.70
2022-08-28T06:54:12.418Z,10.70
2022-08-28T06:55:12.395Z,15.80
2022-08-28T06:56:18.402Z,17.00
2022-08-28T06:57:12.357Z,15.90
2022-08-28T06:58:12.379Z,11.10
2022-08-28T06:59:12.371Z,13.10
2022-08-28T07:00:12.302Z,13.60
2022-08-28T07:01:12.359Z,11.70
2022-08-28T07:02:12.387Z,13.70
2022-08-28T07:03:12.247Z,11.50
2022-08-28T07:04:12.233Z,13.00
2022-08-28T07:05:12.209Z,10.90
2022-08-28T07:06:12.191Z,12.50
2022-08-28T07:07:18.731Z,14.70
2022-08-28T07:08:12.362Z,12.20
2022-08-28T07:09:12.136Z,13.40
2022-08-28T07:10:12.143Z,10.30
2022-08-28T07:11:12.098Z,12.40
2022-08-28T07:12:12.080Z,12.10
2022-08-28T07:13:12.063Z,13.80
2022-08-28T07:14:12.043Z,11.80
2022-08-28T07:15:12.026Z,9.70
2022-08-28T07:16:12.055Z,9.10
2022-08-28T07:17:11.990Z,9.10
2022-08-28T07:18:12.095Z,10.80
2022-08-28T07:19:11.965Z,9.80
2022-08-28T07:20:11.930Z,12.60
2022-08-28T07:21:12.695Z,10.80
2022-08-28T07:22:11.895Z,8.70
2022-08-28T07:23:11.878Z,9.00
2022-08-28T07:24:11.857Z,8.60
2022-08-28T07:25:11.843Z,10.20
2022-08-28T07:26:11.820Z,8.50
2022-08-28T07:27:16.965Z,10.20
2022-08-28T07:28:11.909Z,13.70
2022-08-28T07:29:11.902Z,9.60
2022-08-28T07:30:11.748Z,6.90
2022-08-28T07:31:11.809Z,8.10
2022-08-28T07:32:11.713Z,8.70
2022-08-28T07:33:11.695Z,9.50
2022-08-28T07:34:11.676Z,12.70
2022-08-28T07:35:11.661Z,5.60
2022-08-28T07:36:15.879Z,10.30
2022-08-28T07:37:15.214Z,8.80
2022-08-28T07:38:11.714Z,11.20
2022-08-28T07:39:11.587Z,11.00
2022-08-28T07:40:11.628Z,7.40
2022-08-28T07:41:11.553Z,11.40
2022-08-28T07:42:11.580Z,10.90
2022-08-28T07:43:11.515Z,7.70
2022-08-28T07:44:11.494Z,8.90
2022-08-28T07:45:11.479Z,8.10
2022-08-28T07:46:11.650Z,6.60
2022-08-28T07:47:11.443Z,9.70
2022-08-28T07:48:11.798Z,9.20
2022-08-28T07:49:11.408Z,12.10
2022-08-28T07:50:11.384Z,10.00
2022-08-28T07:51:11.369Z,10.60
2022-08-28T07:52:11.351Z,9.50
2022-08-28T07:53:11.334Z,7.60
2022-08-28T07:54:14.750Z,7.20
2022-08-28T07:55:11.296Z,7.10
2022-08-28T07:56:11.278Z,8.00
2022-08-28T07:57:11.276Z,11.20
2022-08-28T07:58:11.243Z,7.30
2022-08-28T07:59:11.224Z,10.00
2022-08-28T08:00:11.207Z,10.10
2022-08-28T08:01:11.246Z,8.00
2022-08-28T08:02:11.169Z,7.90
2022-08-28T08:03:11.181Z,10.30
2022-08-28T08:04:11.131Z,9.40
2022-08-28T08:05:11.119Z,8.90
2022-08-28T08:06:11.097Z,7.40
2022-08-28T08:07:11.082Z,6.30
2022-08-28T08:08:11.060Z,8.90
2022-08-28T08:09:11.044Z,8.20
2022-08-28T08:10:11.025Z,10.00
2022-08-28T08:11:11.246Z,13.30
2022-08-28T08:12:10.989Z,6.20
2022-08-28T08:13:10.972Z,9.00
2022-08-28T08:14:10.959Z,9.40
2022-08-28T08:15:10.934Z,7.70
2022-08-28T08:16:10.941Z,7.70
2022-08-28T08:17:10.899Z,8.40
2022-08-28T08:18:10.879Z,9.20
2022-08-28T08:19:10.862Z,9.30
2022-08-28T08:20:10.843Z,7.50
2022-08-28T08:21:10.827Z,9.70
2022-08-28T08:22:10.807Z,9.80
2022-08-28T08:23:10.793Z,8.90
2022-08-28T08:24:10.774Z,8.80
2022-08-28T08:25:10.758Z,9.20
2022-08-28T08:26:10.736Z,5.40
2022-08-28T08:27:10.720Z,8.50
2022-08-28T08:28:10.699Z,8.50
2022-08-28T08:29:10.686Z,7.30
2022-08-28T08:30:10.665Z,5.40
2022-08-28T08:31:10.698Z,9.90
2022-08-28T08:32:10.634Z,8.50
2022-08-28T08:33:10.610Z,9.50
2022-08-28T08:34:10.592Z,9.50
2022-08-28T08:35:10.577Z,5.90
2022-08-28T08:36:10.555Z,7.30
2022-08-28T08:37:10.547Z,11.40
2022-08-28T08:38:10.529Z,10.40
2022-08-28T08:39:10.505Z,7.40
2022-08-28T08:40:10.932Z,6.60
2022-08-28T08:41:10.467Z,4.60
2022-08-28T08:42:10.446Z,5.90
2022-08-28T08:43:10.433Z,6.60
2022-08-28T08:44:10.413Z,5.70
2022-08-28T08:45:10.396Z,9.30
2022-08-28T08:46:10.433Z,9.00
2022-08-28T08:47:14.009Z,9.70
2022-08-28T08:48:10.340Z,7.80
2022-08-28T08:49:10.328Z,5.40
2022-08-28T08:50:10.307Z,10.50
2022-08-28T08:51:10.289Z,9.30
2022-08-28T08:52:10.269Z,5.00
2022-08-28T08:53:10.268Z,6.80
2022-08-28T08:54:10.236Z,9.20
2022-08-28T08:55:10.217Z,11.10
2022-08-28T08:56:10.199Z,7.30
2022-08-28T08:57:10.183Z,9.30
2022-08-28T08:58:10.207Z,6.30
2022-08-28T08:59:10.145Z,8.80
2022-08-28T09:00:13.673Z,7.30
2022-08-28T09:01:10.200Z,7.90
2022-08-28T09:02:10.088Z,6.60
2022-08-28T09:03:10.148Z,5.80
2022-08-28T09:04:10.057Z,6.40
2022-08-28T09:05:10.036Z,9.30
2022-08-28T09:06:10.019Z,7.30
2022-08-28T09:07:10.004Z,7.90
2022-08-28T09:08:09.993Z,10.30
2022-08-28T09:09:09.967Z,8.80
2022-08-28T09:10:09.948Z,7.50
2022-08-28T09:11:09.929Z,5.80
2022-08-28T09:12:09.910Z,7.00
2022-08-28T09:13:09.898Z,5.90
2022-08-28T09:14:09.875Z,6.10
2022-08-28T09:15:09.858Z,9.60
2022-08-28T09:16:09.950Z,7.20
2022-08-28T09:17:09.824Z,6.20
2022-08-28T09:18:09.912Z,11.70
2022-08-28T09:19:09.788Z,8.60
2022-08-28T09:20:09.778Z,5.70
2022-08-28T09:21:09.751Z,7.00
2022-08-28T09:22:09.734Z,7.10
2022-08-28T09:23:12.695Z,6.10
2022-08-28T09:24:10.939Z,5.10
2022-08-28T09:25:09.688Z,9.30
2022-08-28T09:26:09.663Z,6.80
2022-08-28T09:27:14.222Z,5.00
2022-08-28T09:28:09.628Z,4.40
2022-08-28T09:29:09.610Z,7.70
2022-08-28T09:30:09.596Z,10.40
2022-08-28T09:31:09.681Z,5.00
2022-08-28T09:32:09.556Z,4.80
2022-08-28T09:33:09.540Z,6.10
2022-08-28T09:34:09.521Z,5.90
2022-08-28T09:35:09.505Z,5.80
2022-08-28T09:36:09.485Z,6.00
2022-08-28T09:37:09.469Z,7.40
2022-08-28T09:38:09.494Z,5.90
2022-08-28T09:39:09.435Z,5.50
2022-08-28T09:40:09.481Z,6.30
2022-08-28T09:41:09.417Z,5.00
2022-08-28T09:42:09.380Z,4.50
2022-08-28T09:43:09.363Z,4.50
2022-08-28T09:44:09.345Z,9.70
2022-08-28T09:45:09.781Z,7.80
2022-08-28T09:46:09.344Z,11.20
2022-08-28T09:47:09.292Z,5.30
2022-08-28T09:48:09.325Z,6.30
2022-08-28T09:49:09.265Z,9.10
2022-08-28T09:50:09.240Z,9.00
2022-08-28T09:51:09.229Z,7.50
2022-08-28T09:52:09.206Z,8.60
2022-08-28T09:53:09.191Z,8.40
2022-08-28T09:54:09.170Z,7.10
2022-08-28T09:55:09.157Z,3.80
2022-08-28T09:56:09.139Z,7.00
2022-08-28T09:57:09.123Z,10.40
2022-08-28T09:58:10.318Z,7.30
2022-08-28T09:59:09.084Z,5.50
2022-08-28T10:00:09.066Z,6.90
2022-08-28T10:01:09.127Z,6.90
2022-08-28T10:02:09.124Z,5.10
2022-08-28T10:03:09.015Z,5.30
2022-08-28T10:04:09.096Z,5.50
2022-08-28T10:05:08.984Z,6.60
2022-08-28T10:06:08.969Z,8.00
2022-08-28T10:07:08.946Z,9.00
2022-08-28T10:08:08.972Z,8.00
2022-08-28T10:09:08.913Z,7.00
2022-08-28T10:10:08.899Z,4.40
2022-08-28T10:11:08.879Z,3.50
2022-08-28T10:12:08.866Z,5.10
2022-08-28T10:13:08.849Z,8.40
2022-08-28T10:14:08.832Z,3.40
2022-08-28T10:15:08.812Z,8.00
2022-08-28T10:16:08.828Z,8.10
2022-08-28T10:17:08.779Z,3.40
2022-08-28T10:18:08.779Z,5.80
2022-08-28T10:19:08.746Z,5.10
2022-08-28T10:20:08.732Z,5.60
2022-08-28T10:21:08.714Z,6.00
2022-08-28T10:31:27.488Z,10.00
2022-08-28T10:32:27.409Z,9.80
2022-08-28T10:33:27.392Z,5.30
2022-08-28T10:34:27.375Z,3.40
2022-08-28T10:35:27.358Z,5.20
2022-08-28T10:36:34.780Z,6.20
2022-08-28T10:37:27.325Z,7.00
2022-08-28T10:38:27.313Z,5.10
2022-08-28T10:39:27.291Z,3.80
2022-08-28T10:40:27.326Z,5.90
2022-08-28T10:41:27.262Z,8.50
2022-08-28T10:42:27.818Z,5.30
2022-08-28T10:43:27.226Z,6.90
2022-08-28T10:44:27.212Z,5.50
2022-08-28T10:45:27.193Z,7.90
2022-08-28T10:46:27.568Z,6.80
2022-08-28T10:47:27.161Z,5.80
2022-08-28T10:48:27.145Z,4.90
2022-08-28T10:49:27.129Z,7.20
2022-08-28T10:50:27.110Z,6.20
2022-08-28T10:51:34.956Z,9.30
2022-08-28T10:52:27.080Z,7.90
2022-08-28T10:53:27.065Z,4.50
2022-08-28T10:54:27.047Z,7.20
2022-08-28T10:55:27.029Z,6.00
2022-08-28T10:56:27.013Z,5.50
2022-08-28T10:57:26.997Z,6.70
2022-08-28T10:58:26.982Z,7.70
2022-08-28T10:59:26.964Z,5.90
2022-08-28T11:00:26.949Z,6.00
2022-08-28T11:01:26.970Z,3.80
2022-08-28T11:02:27.002Z,3.50
2022-08-28T11:03:34.853Z,5.90
2022-08-28T11:04:26.881Z,8.00
2022-08-28T11:05:26.866Z,4.50
2022-08-28T11:06:26.848Z,6.40
2022-08-28T11:07:26.831Z,6.20
2022-08-28T11:08:26.816Z,5.30
2022-08-28T11:09:26.801Z,4.20
2022-08-28T11:10:26.785Z,4.40
2022-08-28T11:11:26.764Z,6.30
2022-08-28T11:12:26.751Z,5.60
2022-08-28T11:13:26.735Z,5.60
2022-08-28T11:14:26.718Z,6.80
2022-08-28T11:15:26.709Z,4.80
2022-08-28T11:16:26.719Z,7.90
2022-08-28T11:17:26.669Z,6.60
2022-08-28T11:18:26.651Z,4.00
2022-08-28T11:19:26.634Z,5.20
2022-08-28T11:20:26.619Z,5.70
2022-08-28T11:21:26.605Z,5.20
2022-08-28T11:22:26.588Z,7.60
2022-08-28T11:23:26.569Z,8.30
2022-08-28T11:24:26.600Z,10.30
2022-08-28T11:25:32.314Z,5.60
2022-08-28T11:26:26.520Z,6.90
2022-08-28T11:27:26.502Z,5.70
2022-08-28T11:28:26.487Z,5.30
2022-08-28T11:29:26.469Z,4.60
2022-08-28T11:30:26.536Z,5.70
2022-08-28T11:31:28.977Z,5.40
2022-08-28T11:32:26.423Z,5.80
2022-08-28T11:33:26.403Z,4.80
2022-08-28T11:34:26.389Z,10.70
2022-08-28T11:35:26.370Z,6.70
2022-08-28T11:36:26.354Z,5.70
2022-08-28T11:37:26.340Z,5.00
2022-08-28T11:38:26.323Z,11.10
2022-08-28T11:39:26.309Z,5.60
2022-08-28T11:40:26.371Z,5.60
2022-08-28T11:41:26.273Z,5.00
2022-08-28T11:42:26.258Z,5.70
2022-08-28T11:43:26.241Z,6.60
2022-08-28T11:44:26.225Z,6.80
2022-08-28T11:45:26.208Z,4.60
2022-08-28T11:46:26.238Z,6.30
2022-08-28T11:47:26.174Z,6.30
2022-08-28T11:48:26.164Z,3.60
2022-08-28T11:49:26.153Z,5.20
2022-08-28T11:50:26.128Z,4.30
2022-08-28T11:51:26.110Z,7.40
2022-08-28T11:52:26.094Z,7.50
2022-08-28T11:53:26.075Z,5.80
2022-08-28T11:54:26.062Z,5.00
2022-08-28T11:55:26.043Z,5.80
2022-08-28T11:56:28.328Z,5.00
2022-08-28T11:57:26.070Z,7.50
2022-08-28T11:58:25.997Z,3.80
2022-08-28T11:59:25.980Z,6.40
2022-08-28T12:00:25.963Z,5.50
2022-08-28T12:01:25.945Z,7.10
2022-08-28T12:02:25.972Z,5.20
2022-08-28T12:03:25.940Z,6.30
2022-08-28T12:04:25.949Z,6.60
2022-08-28T12:05:25.882Z,6.30
2022-08-28T12:06:25.864Z,4.00
2022-08-28T12:07:25.847Z,6.00
2022-08-28T12:08:25.832Z,5.30
2022-08-28T12:09:25.818Z,5.10
2022-08-28T12:10:27.706Z,6.00
2022-08-28T12:11:25.781Z,4.60
2022-08-28T12:12:25.768Z,6.70
2022-08-28T12:13:25.750Z,5.60
2022-08-28T12:14:25.736Z,5.90
2022-08-28T12:15:25.719Z,5.60
2022-08-28T12:16:25.742Z,5.50
2022-08-28T12:17:30.521Z,5.60
2022-08-28T12:18:25.671Z,6.50
2022-08-28T12:19:25.653Z,7.20
2022-08-28T12:20:25.639Z,7.40
2022-08-28T12:21:25.621Z,4.30
2022-08-28T12:22:25.604Z,6.90
2022-08-28T12:23:25.588Z,3.60
2022-08-28T12:24:25.575Z,5.50
2022-08-28T12:25:25.563Z,4.80
2022-08-28T12:26:25.541Z,5.60
2022-08-28T12:27:25.526Z,6.20
2022-08-28T12:28:25.510Z,4.80
2022-08-28T12:29:27.199Z,4.60
2022-08-28T12:30:25.478Z,6.90
2022-08-28T12:31:25.460Z,6.80
2022-08-28T12:32:25.443Z,4.20
2022-08-28T12:33:25.428Z,6.60
2022-08-28T12:34:25.409Z,3.20
2022-08-28T12:35:25.391Z,4.90
2022-08-28T12:36:25.379Z,7.90
2022-08-28T12:37:25.362Z,8.70
2022-08-28T12:38:25.346Z,4.90
2022-08-28T12:39:25.329Z,5.40
2022-08-28T12:40:25.404Z,4.10
2022-08-28T12:41:25.295Z,5.50
2022-08-28T12:42:25.279Z,6.00
2022-08-28T12:43:25.267Z,4.00
2022-08-28T12:44:25.252Z,7.00
2022-08-28T12:45:25.234Z,7.00
2022-08-28T12:46:25.254Z,5.20
2022-08-28T12:47:25.200Z,7.10
2022-08-28T12:48:25.183Z,4.50
2022-08-28T12:49:25.168Z,6.80
2022-08-28T12:50:25.152Z,5.50
2022-08-28T12:51:25.135Z,5.50
2022-08-28T12:52:25.119Z,4.00
2022-08-28T12:53:25.103Z,5.40
2022-08-28T12:54:25.089Z,5.60
2022-08-28T12:55:25.070Z,6.60
2022-08-28T12:56:25.056Z,4.70
2022-08-28T12:57:25.167Z,5.30
2022-08-28T12:58:25.022Z,3.70
2022-08-28T12:59:27.477Z,5.90
2022-08-28T13:00:24.992Z,4.60
2022-08-28T13:01:25.106Z,6.30
2022-08-28T13:02:25.038Z,3.90
2022-08-28T13:03:24.944Z,4.50
2022-08-28T13:04:24.928Z,6.80
2022-08-28T13:05:24.910Z,3.40
2022-08-28T13:06:24.893Z,6.30
2022-08-28T13:07:24.878Z,5.60
2022-08-28T13:08:24.863Z,4.80
2022-08-28T13:09:24.846Z,3.30
2022-08-28T13:10:24.830Z,4.30
2022-08-28T13:11:24.815Z,7.20
2022-08-28T13:12:26.979Z,5.10
2022-08-28T13:13:24.786Z,6.00
2022-08-28T13:14:24.768Z,5.90
2022-08-28T13:15:24.751Z,5.30
2022-08-28T13:16:24.758Z,5.10